»·PEaware :: DAL327 KLAX-KSLC

DAL327 :: KLAX-KSLC

FLIGHT INFORMATION

Flight Status: Arrived
Operator:
Delta Air Lines
More flights by this operator :: More flights under this callsign
Pilot: Jim M. (18055)
Aircraft: BOEING 777-200
(B772)
More flights by this aircraft type
Origin: KLAX Los Angeles Intl
United States
Destination: KSLC Salt Lake City Intl
United States
More flights between these airports :: More routes between these airports
Route: ORCKA3 LAS Q70 BLIPP Q842 WINEN MLF DELTA5
File this flight plan on PilotEdge
Remarks:
Altitude:
(Current/Filed)
39,000ft
Speed:
(Current/Filed)
450kts
Departed: 19-Aug-19 11:02 AM
Arrived: 19-Aug-19 12:21 PM
Distance/Time
Traveled:
512nm/1:19
Distance/Time
To Go:
Arrived

Flight Plot

Page will automatically refresh every two minutes.


Map Options




Map Legend


Flown Route
Filed Route
Departure Airport
Arrival Airport
Navaid (VOR, NDB)
Fix

Horizontal Profiles

Position Reports

Time Latitude Longitude Heading Altitude Ground
Speed
19-Aug-19 10:14 33.940473 -118.399054 350 139ft 0kts
19-Aug-19 10:15 33.940473 -118.399054 350 139ft 0kts
19-Aug-19 10:16 33.940473 -118.399054 350 139ft 0kts
19-Aug-19 10:17 33.940473 -118.399054 350 139ft 0kts
19-Aug-19 10:18 33.940473 -118.399054 350 139ft 0kts
19-Aug-19 10:19 33.940473 -118.399054 350 139ft 0kts
19-Aug-19 10:20 33.940473 -118.399054 350 139ft 0kts
19-Aug-19 10:21 33.940473 -118.399054 350 139ft 0kts
19-Aug-19 10:22 33.940473 -118.399054 350 139ft 0kts
19-Aug-19 10:23 33.940473 -118.399054 350 139ft 0kts
19-Aug-19 10:24 33.940473 -118.399054 350 139ft 0kts
19-Aug-19 10:25 33.940473 -118.399054 350 139ft 0kts
19-Aug-19 10:26 33.940473 -118.399054 350 139ft 0kts
19-Aug-19 10:27 33.940473 -118.399054 350 139ft 0kts
19-Aug-19 10:28 33.940473 -118.399054 350 139ft 0kts
19-Aug-19 10:29 33.940473 -118.399054 350 139ft 0kts
19-Aug-19 10:30 33.940473 -118.399054 350 139ft 0kts
19-Aug-19 10:31 33.940473 -118.399054 350 139ft 0kts
19-Aug-19 10:32 33.940473 -118.399054 350 139ft 0kts
19-Aug-19 10:33 33.940473 -118.399054 350 139ft 0kts
19-Aug-19 10:34 33.940473 -118.399054 350 139ft 0kts
19-Aug-19 10:35 33.940473 -118.399054 350 139ft 0kts
19-Aug-19 10:36 33.940473 -118.399054 350 139ft 0kts
19-Aug-19 10:37 33.940473 -118.399054 350 139ft 0kts
19-Aug-19 10:38 33.940473 -118.399054 350 139ft 0kts
19-Aug-19 10:39 33.940473 -118.399054 350 139ft 0kts
19-Aug-19 10:40 33.940473 -118.399054 350 139ft 0kts
19-Aug-19 10:41 33.940473 -118.399054 350 139ft 0kts
19-Aug-19 10:42 33.940473 -118.399054 350 139ft 0kts
19-Aug-19 10:43 33.940473 -118.399054 350 139ft 0kts
19-Aug-19 10:44 33.940473 -118.399054 350 139ft 0kts
19-Aug-19 10:45 33.940473 -118.399054 350 139ft 0kts
19-Aug-19 10:46 33.940473 -118.399054 350 139ft 0kts
19-Aug-19 10:47 33.940425 -118.399044 350 139ft 1kts
19-Aug-19 10:48 33.939787 -118.399336 62 139ft 2kts
19-Aug-19 10:49 33.939727 -118.399551 79 139ft 0kts
19-Aug-19 10:50 33.939727 -118.399551 79 139ft 0kts
19-Aug-19 10:51 33.939727 -118.399551 79 139ft 0kts
19-Aug-19 10:52 33.939727 -118.399551 79 139ft 0kts
19-Aug-19 10:53 33.939773 -118.399179 83 139ft 4kts
19-Aug-19 10:54 33.939180 -118.397598 109 139ft 5kts
19-Aug-19 10:55 33.939435 -118.394607 84 139ft 11kts
19-Aug-19 10:56 33.939714 -118.391236 82 139ft 9kts
19-Aug-19 10:57 33.940071 -118.387810 82 139ft 12kts
19-Aug-19 10:58 33.940435 -118.384322 82 139ft 9kts
19-Aug-19 10:59 33.940740 -118.381420 81 139ft 6kts
19-Aug-19 11:00 33.940180 -118.380131 172 139ft 10kts
19-Aug-19 11:01 33.937971 -118.399242 261 225ft 185kts
19-Aug-19 11:02 33.929639 -118.469036 256 3309ft 251kts
19-Aug-19 11:03 33.902421 -118.553464 239 6570ft 283kts
19-Aug-19 11:04 33.831289 -118.565037 141 10842ft 305kts
19-Aug-19 11:05 33.828450 -118.468093 51 14742ft 336kts
19-Aug-19 11:06 33.915230 -118.437036 6 15520ft 356kts
19-Aug-19 11:07 33.985062 -118.348077 78 18086ft 412kts
19-Aug-19 11:08 34.048170 -118.230681 47 21239ft 442kts
19-Aug-19 11:09 34.117669 -118.105924 56 23060ft 453kts
19-Aug-19 11:10 34.189425 -117.979670 56 24853ft 463kts
19-Aug-19 11:11 34.263127 -117.848410 56 27789ft 481kts
19-Aug-19 11:12 34.339675 -117.711228 56 30084ft 498kts
19-Aug-19 11:13 34.419881 -117.575015 54 30080ft 498kts
19-Aug-19 11:14 34.500782 -117.439185 54 30093ft 497kts
19-Aug-19 11:15 34.581686 -117.303055 54 30098ft 497kts
19-Aug-19 11:16 34.662640 -117.166480 54 30109ft 497kts
19-Aug-19 11:17 34.743690 -117.029001 54 31368ft 510kts
19-Aug-19 11:18 34.825636 -116.889426 54 34422ft 506kts
19-Aug-19 11:19 34.907291 -116.749269 54 36720ft 508kts
19-Aug-19 11:20 35.000588 -116.618927 45 38190ft 512kts
19-Aug-19 11:21 35.097826 -116.492560 46 39056ft 509kts
19-Aug-19 11:22 35.193815 -116.365786 46 39059ft 508kts
19-Aug-19 11:23 35.289707 -116.238587 47 39060ft 507kts
19-Aug-19 11:24 35.384882 -116.111569 47 39048ft 507kts
19-Aug-19 11:25 35.481735 -115.982256 47 39045ft 517kts
19-Aug-19 11:26 35.578040 -115.852375 47 39040ft 515kts
19-Aug-19 11:27 35.674303 -115.721444 48 39036ft 515kts
19-Aug-19 11:28 35.769605 -115.589859 48 39034ft 515kts
19-Aug-19 11:29 35.864834 -115.458018 47 39033ft 515kts
19-Aug-19 11:30 35.958711 -115.328796 48 39032ft 516kts
19-Aug-19 11:31 36.053641 -115.196244 48 39031ft 515kts
19-Aug-19 11:32 36.157106 -115.074315 38 39028ft 515kts
19-Aug-19 11:33 36.266200 -114.959296 40 39020ft 515kts
19-Aug-19 11:34 36.373857 -114.842385 40 39024ft 516kts
19-Aug-19 11:35 36.481945 -114.724975 40 39030ft 516kts
19-Aug-19 11:36 36.590014 -114.607301 41 39038ft 516kts
19-Aug-19 11:37 36.697779 -114.489161 40 39064ft 516kts
19-Aug-19 11:38 36.816955 -114.388910 29 39078ft 515kts
19-Aug-19 11:39 36.938609 -114.295273 31 39088ft 515kts
19-Aug-19 11:40 37.059938 -114.199897 31 39123ft 515kts
19-Aug-19 11:41 37.181286 -114.104006 31 39122ft 515kts
19-Aug-19 11:42 37.302051 -114.008016 31 39128ft 514kts
19-Aug-19 11:43 37.422881 -113.911585 31 39141ft 516kts
19-Aug-19 11:44 37.543682 -113.814800 31 39164ft 514kts
19-Aug-19 11:45 37.664300 -113.717800 31 39194ft 514kts
19-Aug-19 11:46 37.785088 -113.620473 31 39257ft 514kts
19-Aug-19 11:47 37.905231 -113.522875 31 39240ft 514kts
19-Aug-19 11:48 38.016538 -113.408377 42 39242ft 515kts
19-Aug-19 11:49 38.122246 -113.285299 41 39237ft 516kts
19-Aug-19 11:50 38.229402 -113.163696 41 39227ft 517kts
19-Aug-19 11:51 38.336322 -113.041192 39 39225ft 517kts
19-Aug-19 11:52 38.462332 -112.956712 18 39220ft 513kts
19-Aug-19 11:53 38.594619 -112.888544 20 39223ft 514kts
19-Aug-19 11:54 38.726809 -112.817574 20 39226ft 514kts
19-Aug-19 11:55 38.858881 -112.746393 20 39221ft 515kts
19-Aug-19 11:56 38.990676 -112.675034 20 39157ft 511kts
19-Aug-19 11:57 39.121185 -112.604487 21 35915ft 518kts
19-Aug-19 11:58 39.254321 -112.531765 21 32642ft 518kts
19-Aug-19 11:59 39.389178 -112.474450 11 30023ft 500kts
19-Aug-19 12:00 39.521902 -112.432501 11 27469ft 484kts
19-Aug-19 12:01 39.649992 -112.389901 11 24996ft 467kts
19-Aug-19 12:02 39.774366 -112.348585 11 22564ft 453kts
19-Aug-19 12:03 39.894254 -112.308261 12 20193ft 438kts
19-Aug-19 12:04 40.002537 -112.271753 12 17927ft 427kts
19-Aug-19 12:05 40.115053 -112.233863 12 17238ft 409kts
19-Aug-19 12:06 40.220643 -112.197910 12 17009ft 395kts
19-Aug-19 12:07 40.331402 -112.160186 12 16755ft 420kts
19-Aug-19 12:08 40.441848 -112.122532 13 14033ft 404kts
19-Aug-19 12:09 40.549847 -112.085254 13 12256ft 396kts
19-Aug-19 12:10 40.657839 -112.079724 354 11354ft 379kts
19-Aug-19 12:11 40.755199 -112.092437 353 11044ft 317kts
19-Aug-19 12:12 40.833521 -112.101620 352 11013ft 267kts
19-Aug-19 12:13 40.906279 -112.110248 352 10085ft 259kts
19-Aug-19 12:15 40.979056 -112.114136 16 8440ft 266kts
19-Aug-19 12:16 41.000957 -112.037565 122 7606ft 224kts
19-Aug-19 12:17 40.956937 -111.993965 171 7031ft 198kts
19-Aug-19 12:18 40.902862 -111.987926 178 6097ft 180kts
19-Aug-19 12:19 40.858116 -111.982745 174 5243ft 148kts
19-Aug-19 12:20 40.816896 -111.977951 173 4446ft 153kts
19-Aug-19 12:21 40.787690 -111.974549 174 4241ft 28kts
19-Aug-19 12:22 40.783933 -111.975926 229 4240ft 9kts
19-Aug-19 12:23 40.787600 -111.976718 356 4240ft 15kts
19-Aug-19 12:24 40.790913 -111.977106 355 4240ft 13kts
19-Aug-19 12:25 40.791840 -111.979737 264 4240ft 8kts
19-Aug-19 12:26 40.790187 -111.982184 184 4240ft 6kts
19-Aug-19 12:27 40.789335 -111.982308 189 4240ft 0kts
19-Aug-19 12:28 40.789284 -111.983655 311 4240ft 6kts
19-Aug-19 12:29 40.789313 -111.984737 212 4240ft 0kts
19-Aug-19 12:30 40.789313 -111.984737 212 4240ft 0kts

Navigation Log

Ident Type
Flight plan parsing failed, navigation log unavailable